Time;durP1;ratioP1;P1;durP2;ratioP2;P2;SDS_P1;SDS_P2;PMS_P1;PMS_P2;Temp;Humidity;BMP_temperature;BMP_pressure;BME280_temperature;BME280_humidity;BME280_pressure;Samples;Min_cycle;Max_cycle;Signal;HPM_P1;HPM_P2
2022/09/29 00:01:05;;;;;;;1.63;1.15;;;20.70;44.10;;;;;;5042941;28;20021;-52
2022/09/29 00:03:31;;;;;;;1.83;1.10;;;20.70;44.10;;;;;;5047813;28;20048;-52
2022/09/29 00:05:57;;;;;;;1.50;1.10;;;20.70;44.70;;;;;;5055699;28;20028;-54
2022/09/29 00:08:25;;;;;;;1.88;1.00;;;20.70;44.10;;;;;;5057677;28;20036;-52
2022/09/29 00:10:51;;;;;;;2.17;1.05;;;20.70;44.10;;;;;;5053002;28;20120;-49
2022/09/29 00:13:17;;;;;;;2.25;1.25;;;20.70;44.10;;;;;;5057266;28;20116;-51
2022/09/29 00:15:44;;;;;;;1.65;0.98;;;20.70;44.10;;;;;;5056878;28;20021;-48
2022/09/29 00:18:10;;;;;;;1.23;0.93;;;20.70;44.10;;;;;;5053996;28;20449;-52
2022/09/29 00:20:36;;;;;;;1.88;1.10;;;20.70;44.00;;;;;;5051836;28;20030;-48
2022/09/29 00:23:02;;;;;;;2.45;1.05;;;20.70;44.00;;;;;;5054121;28;20087;-48
2022/09/29 00:25:29;;;;;;;1.20;0.88;;;20.70;44.00;;;;;;5057304;28;20047;-50
2022/09/29 00:27:54;;;;;;;2.28;1.15;;;20.70;43.90;;;;;;5057325;28;20048;-48
2022/09/29 00:30:20;;;;;;;2.92;1.58;;;20.70;43.90;;;;;;5047059;28;20029;-52
2022/09/29 00:32:46;;;;;;;1.00;0.80;;;20.70;44.00;;;;;;5041664;28;20069;-51
2022/09/29 00:35:12;;;;;;;1.65;0.93;;;20.70;43.90;;;;;;5037182;28;20506;-50
2022/09/29 00:37:39;;;;;;;1.30;1.02;;;20.70;43.90;;;;;;5037188;28;20037;-51
2022/09/29 00:40:06;;;;;;;1.30;0.90;;;20.70;43.80;;;;;;5035613;28;20465;-48
2022/09/29 00:42:31;;;;;;;1.55;0.90;;;20.70;43.90;;;;;;5051346;28;20103;-50
2022/09/29 00:45:15;;;;;;;1.38;0.95;;;20.70;43.90;;;;;;5043567;28;20144;-50
2022/09/29 00:47:45;;;;;;;1.33;1.00;;;20.60;43.90;;;;;;5031641;28;20068;-51
2022/09/29 00:50:25;;;;;;;1.98;1.08;;;20.60;43.90;;;;;;5056650;28;20444;-49
2022/09/29 00:52:58;;;;;;;2.15;1.00;;;20.70;43.90;;;;;;5088054;28;20040;-48
2022/09/29 00:55:35;;;;;;;1.15;0.85;;;20.60;43.80;;;;;;5053086;28;20400;-49
2022/09/29 00:58:22;;;;;;;2.15;1.13;;;20.60;43.80;;;;;;5036913;28;20033;-48
2022/09/29 01:00:48;;;;;;;1.80;0.80;;;20.60;43.80;;;;;;5045575;28;20471;-47
2022/09/29 01:03:19;;;;;;;1.98;1.17;;;20.60;43.70;;;;;;5055669;28;20029;-50
2022/09/29 01:06:09;;;;;;;1.80;1.20;;;20.60;43.60;;;;;;5050044;28;20029;-49
2022/09/29 01:08:43;;;;;;;1.20;1.00;;;20.60;43.60;;;;;;5036310;28;20357;-47
2022/09/29 01:11:11;;;;;;;1.35;0.80;;;20.60;43.50;;;;;;5037900;28;20385;-49
2022/09/29 01:13:38;;;;;;;1.35;0.90;;;20.60;43.50;;;;;;5056403;28;20029;-48
2022/09/29 01:16:04;;;;;;;1.70;1.13;;;20.60;43.50;;;;;;5044500;28;20033;-51
2022/09/29 01:18:31;;;;;;;2.25;1.50;;;20.60;43.40;;;;;;5050238;28;20372;-50
2022/09/29 01:21:24;;;;;;;1.10;0.85;;;20.60;43.30;;;;;;5035134;28;20021;-49
2022/09/29 01:24:07;;;;;;;1.42;1.02;;;20.60;43.30;;;;;;5036107;28;20041;-47
2022/09/29 01:26:59;;;;;;;1.52;1.10;;;20.60;43.20;;;;;;5035841;28;20041;-52
2022/09/29 01:29:56;;;;;;;1.40;1.05;;;20.50;43.10;;;;;;5035338;28;20026;-52
2022/09/29 01:32:47;;;;;;;1.50;0.90;;;20.60;43.20;;;;;;5050097;28;20166;-49
2022/09/29 01:35:31;;;;;;;1.08;0.90;;;20.60;43.20;;;;;;5053836;28;20365;-50
2022/09/29 01:38:02;;;;;;;1.48;0.95;;;20.50;43.10;;;;;;5051422;28;20048;-47
2022/09/29 01:40:53;;;;;;;1.10;0.77;;;20.50;43.10;;;;;;5050774;28;20105;-47
2022/09/29 01:43:26;;;;;;;1.25;1.00;;;20.50;43.10;;;;;;5053386;28;20040;-51
2022/09/29 01:46:02;;;;;;;1.20;0.90;;;20.50;43.00;;;;;;5053121;28;20029;-49
2022/09/29 01:48:36;;;;;;;1.77;1.05;;;20.50;43.00;;;;;;5055274;28;20051;-53
2022/09/29 01:51:08;;;;;;;2.00;1.13;;;20.50;43.00;;;;;;5043640;28;20043;-48
2022/09/29 01:53:41;;;;;;;1.90;0.90;;;20.50;43.00;;;;;;5035451;28;20033;-47
2022/09/29 01:56:17;;;;;;;1.98;1.30;;;20.50;43.00;;;;;;5035353;28;20092;-51
2022/09/29 01:58:57;;;;;;;1.73;1.00;;;20.50;43.00;;;;;;5067259;28;20128;-49
2022/09/29 02:01:28;;;;;;;1.15;1.00;;;20.50;43.00;;;;;;5032839;28;20033;-50
2022/09/29 02:04:06;;;;;;;2.22;1.10;;;20.50;43.00;;;;;;5054757;28;20033;-48
2022/09/29 02:06:42;;;;;;;0.90;0.73;;;20.50;43.00;;;;;;5055023;28;20044;-47
2022/09/29 02:09:22;;;;;;;1.73;1.10;;;20.50;42.90;;;;;;5055478;28;20119;-50
2022/09/29 02:11:50;;;;;;;1.40;0.95;;;20.50;42.90;;;;;;5050243;28;20024;-48
2022/09/29 02:14:20;;;;;;;1.65;1.10;;;20.50;42.90;;;;;;5050898;28;20018;-51
2022/09/29 02:17:18;;;;;;;0.98;0.73;;;20.50;42.90;;;;;;5046970;28;20028;-50
2022/09/29 02:19:46;;;;;;;1.35;0.98;;;20.50;42.80;;;;;;5035096;28;20053;-51
2022/09/29 02:22:12;;;;;;;1.23;0.90;;;20.50;42.80;;;;;;5033993;28;20069;-49
2022/09/29 02:24:38;;;;;;;0.98;0.90;;;20.50;42.80;;;;;;5034166;28;20033;-48
2022/09/29 02:27:05;;;;;;;1.10;0.90;;;20.40;42.80;;;;;;5035112;28;20099;-50
2022/09/29 02:29:32;;;;;;;1.08;0.90;;;20.50;42.80;;;;;;5059811;28;20033;-49
2022/09/29 02:32:01;;;;;;;1.30;0.90;;;20.40;42.70;;;;;;5050821;28;20028;-49
2022/09/29 02:34:31;;;;;;;1.52;0.90;;;20.40;42.70;;;;;;5054881;28;20028;-49
2022/09/29 02:37:37;;;;;;;1.38;0.80;;;20.40;42.70;;;;;;5055000;28;20036;-49
2022/09/29 02:40:21;;;;;;;1.55;1.00;;;20.40;42.70;;;;;;5048857;28;20045;-47
2022/09/29 02:43:05;;;;;;;1.38;1.00;;;20.40;42.60;;;;;;5052658;28;20108;-48
2022/09/29 02:45:43;;;;;;;1.65;0.82;;;20.40;42.60;;;;;;5054912;28;20403;-47
2022/09/29 02:48:17;;;;;;;0.77;0.70;;;20.40;42.60;;;;;;5023955;28;20053;-49
2022/09/29 02:51:16;;;;;;;1.20;0.80;;;20.40;42.60;;;;;;5049097;28;20028;-49
2022/09/29 02:53:53;;;;;;;1.35;0.55;;;20.40;43.20;;;;;;5015611;28;20072;-53
2022/09/29 02:56:53;;;;;;;1.40;0.82;;;20.40;42.60;;;;;;5015049;28;20026;-50
2022/09/29 02:59:55;;;;;;;2.38;0.88;;;20.40;43.20;;;;;;5051459;28;20032;-52
2022/09/29 03:02:26;;;;;;;1.17;0.82;;;20.40;42.50;;;;;;5046363;28;20033;-46
2022/09/29 03:04:52;;;;;;;1.52;0.90;;;20.40;42.50;;;;;;5045705;28;20029;-49
2022/09/29 03:07:20;;;;;;;0.80;0.60;;;20.30;42.50;;;;;;5053983;28;20029;-50
2022/09/29 03:09:46;;;;;;;1.15;0.77;;;20.40;42.50;;;;;;5054855;28;20099;-50
2022/09/29 03:12:12;;;;;;;0.70;0.70;;;20.40;42.40;;;;;;5056053;28;20025;-49
2022/09/29 03:14:38;;;;;;;1.20;0.70;;;20.30;42.30;;;;;;5058720;28;20033;-50
2022/09/29 03:17:04;;;;;;;0.73;0.70;;;20.30;42.20;;;;;;5057500;28;20036;-49
2022/09/29 03:19:29;;;;;;;0.93;0.70;;;20.30;42.30;;;;;;5056306;28;20048;-52
2022/09/29 03:21:55;;;;;;;1.33;0.77;;;20.30;42.20;;;;;;5041354;28;20026;-48
2022/09/29 03:24:21;;;;;;;1.05;0.70;;;20.30;42.20;;;;;;5037096;28;20040;-47
2022/09/29 03:26:47;;;;;;;1.50;0.90;;;20.30;42.20;;;;;;5027526;28;20022;-50
2022/09/29 03:29:13;;;;;;;0.95;0.50;;;20.30;42.30;;;;;;5051933;28;20043;-48
2022/09/29 03:31:39;;;;;;;0.90;0.75;;;20.30;42.30;;;;;;5035593;28;20069;-50
2022/09/29 03:34:05;;;;;;;1.08;0.70;;;20.30;42.30;;;;;;5038229;28;20037;-51
2022/09/29 03:36:31;;;;;;;1.40;0.80;;;20.30;42.20;;;;;;5037854;28;20033;-51
2022/09/29 03:38:57;;;;;;;0.77;0.70;;;20.30;42.20;;;;;;5045580;28;20021;-51
2022/09/29 03:41:22;;;;;;;1.52;0.90;;;20.30;42.10;;;;;;5051555;28;20029;-51
2022/09/29 03:43:48;;;;;;;1.02;0.75;;;20.30;42.10;;;;;;5057661;28;20083;-47
2022/09/29 03:46:14;;;;;;;1.55;0.90;;;20.30;42.20;;;;;;5057570;28;20068;-49
2022/09/29 03:48:41;;;;;;;1.45;0.93;;;20.30;42.30;;;;;;5058157;28;20501;-49
2022/09/29 03:51:09;;;;;;;1.67;1.02;;;20.30;42.30;;;;;;5026598;28;20034;-50
2022/09/29 03:53:35;;;;;;;1.40;1.02;;;20.30;42.20;;;;;;5018041;28;20018;-48
2022/09/29 03:56:02;;;;;;;1.40;0.90;;;20.30;42.20;;;;;;5050466;28;20536;-48
2022/09/29 03:58:28;;;;;;;2.72;1.10;;;20.30;42.10;;;;;;5052034;28;20396;-50
2022/09/29 04:00:53;;;;;;;1.40;0.93;;;20.30;42.10;;;;;;5045648;28;20087;-47
2022/09/29 04:03:20;;;;;;;1.10;0.82;;;20.30;42.10;;;;;;5039802;28;20041;-49
2022/09/29 04:05:47;;;;;;;1.40;0.90;;;20.30;42.00;;;;;;5038164;28;20033;-47
2022/09/29 04:08:14;;;;;;;1.35;0.80;;;20.30;42.10;;;;;;5037627;28;20044;-49
2022/09/29 04:10:40;;;;;;;1.17;1.00;;;20.30;42.00;;;;;;5048339;28;20114;-47
2022/09/29 04:13:07;;;;;;;1.58;0.82;;;20.30;42.00;;;;;;5057601;28;20037;-47
2022/09/29 04:15:33;;;;;;;1.38;0.90;;;20.30;42.00;;;;;;5037193;28;20078;-49
2022/09/29 04:17:59;;;;;;;1.63;0.90;;;20.30;42.00;;;;;;5051537;28;20054;-51
2022/09/29 04:20:26;;;;;;;1.77;1.10;;;20.30;42.00;;;;;;5054337;28;20029;-54
2022/09/29 04:22:52;;;;;;;1.17;1.08;;;20.30;41.90;;;;;;5056341;28;20444;-49
2022/09/29 04:25:18;;;;;;;1.27;1.10;;;20.20;41.90;;;;;;5039019;28;20041;-48
2022/09/29 04:27:44;;;;;;;2.83;1.10;;;20.30;41.90;;;;;;5037524;28;20037;-49
2022/09/29 04:30:10;;;;;;;1.92;1.10;;;20.20;41.80;;;;;;5047511;28;20427;-48
2022/09/29 04:32:36;;;;;;;1.00;0.90;;;20.30;41.90;;;;;;5056905;28;20094;-49
2022/09/29 04:35:02;;;;;;;4.10;1.00;;;20.20;41.80;;;;;;5054801;28;20021;-49
2022/09/29 04:37:28;;;;;;;2.90;1.13;;;20.20;41.80;;;;;;5057287;28;20021;-53
2022/09/29 04:39:54;;;;;;;1.60;0.90;;;20.20;41.80;;;;;;5044248;28;20364;-51
2022/09/29 04:42:20;;;;;;;1.10;0.73;;;20.20;41.80;;;;;;5056279;28;20040;-50
2022/09/29 04:44:46;;;;;;;0.98;0.80;;;20.20;41.80;;;;;;5056806;28;20033;-48
2022/09/29 04:47:12;;;;;;;1.65;0.85;;;20.20;41.80;;;;;;5054374;28;20112;-50
2022/09/29 04:49:38;;;;;;;1.02;0.80;;;20.20;41.80;;;;;;5050818;28;20034;-52
2022/09/29 04:52:04;;;;;;;0.70;0.70;;;20.20;41.80;;;;;;5037012;28;20032;-49
2022/09/29 04:54:34;;;;;;;1.10;0.95;;;20.20;41.80;;;;;;5044245;28;20061;-51
2022/09/29 04:57:00;;;;;;;1.25;0.90;;;20.20;41.80;;;;;;5056997;28;20032;-50
2022/09/29 04:59:27;;;;;;;1.20;0.82;;;20.20;41.80;;;;;;5042691;28;20503;-49
2022/09/29 05:01:53;;;;;;;0.90;0.73;;;20.20;41.90;;;;;;5044161;28;20029;-54
2022/09/29 05:04:19;;;;;;;1.13;0.70;;;20.20;41.90;;;;;;5036263;28;20091;-49
2022/09/29 05:06:45;;;;;;;1.30;0.80;;;20.20;41.90;;;;;;5035158;28;20025;-49
2022/09/29 05:09:11;;;;;;;1.05;0.77;;;20.20;41.90;;;;;;5035337;28;20045;-53
2022/09/29 05:11:37;;;;;;;1.30;0.88;;;20.20;41.90;;;;;;5041524;28;20119;-53
2022/09/29 05:14:03;;;;;;;0.98;0.70;;;20.20;42.00;;;;;;5036649;28;20041;-50
2022/09/29 05:16:29;;;;;;;0.82;0.60;;;20.20;42.00;;;;;;5036321;28;20056;-52
2022/09/29 05:18:55;;;;;;;1.05;0.77;;;20.20;42.00;;;;;;5047682;28;20439;-51
2022/09/29 05:21:21;;;;;;;0.65;0.63;;;20.20;42.00;;;;;;5049349;28;20033;-49
2022/09/29 05:23:47;;;;;;;0.90;0.80;;;20.20;41.90;;;;;;5044146;28;20029;-51
2022/09/29 05:26:13;;;;;;;0.82;0.77;;;20.20;41.90;;;;;;5036379;28;20491;-51
2022/09/29 05:28:43;;;;;;;1.23;0.85;;;20.20;42.60;;;;;;5040150;28;20025;-53
2022/09/29 05:31:10;;;;;;;1.00;0.70;;;20.20;42.00;;;;;;5050412;28;20056;-48
2022/09/29 05:33:37;;;;;;;0.95;0.80;;;20.20;42.00;;;;;;5055684;28;20025;-51
2022/09/29 05:36:07;;;;;;;1.63;0.90;;;20.10;42.10;;;;;;5047821;28;20071;-53
2022/09/29 05:38:34;;;;;;;1.85;0.70;;;20.10;42.10;;;;;;5044639;28;20041;-54
2022/09/29 05:41:05;;;;;;;0.98;0.60;;;20.20;42.20;;;;;;5056012;28;20033;-53
2022/09/29 05:43:31;;;;;;;0.88;0.70;;;20.20;42.30;;;;;;5046895;28;20116;-52
2022/09/29 05:46:01;;;;;;;1.20;0.73;;;20.10;42.20;;;;;;5035687;28;20517;-51
2022/09/29 05:48:30;;;;;;;0.80;0.68;;;20.10;42.30;;;;;;5031093;28;20108;-50
2022/09/29 05:50:57;;;;;;;1.20;0.70;;;20.10;42.30;;;;;;5055381;28;20036;-53
2022/09/29 05:53:23;;;;;;;1.30;0.80;;;20.10;42.30;;;;;;5049402;28;20056;-52
2022/09/29 05:55:49;;;;;;;1.38;0.75;;;20.20;42.30;;;;;;5048764;28;20063;-50
2022/09/29 05:58:15;;;;;;;0.93;0.70;;;20.10;42.20;;;;;;5041921;28;20025;-51
2022/09/29 06:00:41;;;;;;;2.55;0.75;;;20.20;42.30;;;;;;5050589;28;20028;-48
2022/09/29 06:03:07;;;;;;;2.17;0.93;;;20.10;42.20;;;;;;5035569;28;20083;-48
2022/09/29 06:05:37;;;;;;;1.17;0.80;;;20.10;42.20;;;;;;5034433;28;20037;-50
2022/09/29 06:08:03;;;;;;;1.17;0.90;;;20.10;42.20;;;;;;5039143;28;20044;-50
2022/09/29 06:10:28;;;;;;;1.38;0.98;;;20.10;42.20;;;;;;5040263;28;20054;-52
2022/09/29 06:12:55;;;;;;;1.00;0.80;;;20.10;42.20;;;;;;5034932;28;20083;-48
2022/09/29 06:15:22;;;;;;;1.05;0.80;;;20.10;42.20;;;;;;5033224;28;20102;-50
2022/09/29 06:17:54;;;;;;;1.50;0.70;;;20.10;42.20;;;;;;5046151;28;20037;-49
2022/09/29 06:20:20;;;;;;;1.15;0.98;;;20.10;42.20;;;;;;5034469;28;20049;-50
2022/09/29 06:22:47;;;;;;;1.35;0.95;;;20.10;42.20;;;;;;5042181;28;20105;-54
2022/09/29 06:25:13;;;;;;;1.30;1.10;;;20.10;42.90;;;;;;5036371;28;20124;-53
2022/09/29 06:27:39;;;;;;;1.75;1.23;;;20.10;42.30;;;;;;5038620;28;20143;-50
2022/09/29 06:30:05;;;;;;;1.38;1.08;;;20.10;42.30;;;;;;5034042;28;20032;-52
2022/09/29 06:32:33;;;;;;;1.55;1.10;;;20.10;42.40;;;;;;5037214;28;20086;-52
2022/09/29 06:37:45;;;;;;;2.13;0.90;;;20.10;42.50;;;;;;5014905;28;20034;-52
2022/09/29 06:40:12;;;;;;;1.00;0.90;;;20.10;42.60;;;;;;5037339;28;20029;-49
2022/09/29 06:42:38;;;;;;;1.45;1.10;;;20.10;42.60;;;;;;5039374;28;20047;-52
2022/09/29 06:45:05;;;;;;;1.52;1.05;;;20.10;42.70;;;;;;5040495;28;20049;-51
2022/09/29 06:47:30;;;;;;;1.27;0.80;;;20.10;42.70;;;;;;5034035;28;20025;-50
2022/09/29 06:50:01;;;;;;;1.27;1.10;;;20.10;42.70;;;;;;5033576;28;20464;-50
2022/09/29 06:52:27;;;;;;;2.63;0.98;;;20.10;42.70;;;;;;5034153;28;20045;-49
2022/09/29 06:54:53;;;;;;;1.67;1.15;;;20.10;42.80;;;;;;5036606;28;20025;-53
2022/09/29 06:57:19;;;;;;;1.13;1.00;;;20.10;42.80;;;;;;5041704;28;20033;-52
2022/09/29 06:59:45;;;;;;;2.15;0.93;;;20.10;42.80;;;;;;5031494;28;20079;-56
2022/09/29 07:02:13;;;;;;;1.77;1.30;;;20.10;42.90;;;;;;5033056;28;20025;-50
2022/09/29 07:04:40;;;;;;;5.53;1.50;;;20.10;43.00;;;;;;5039376;28;20076;-50
2022/09/29 07:07:06;;;;;;;1.90;1.70;;;20.10;43.00;;;;;;5054751;28;20338;-49
2022/09/29 07:09:32;;;;;;;2.70;1.70;;;20.10;43.00;;;;;;5053820;28;20114;-51
2022/09/29 07:11:59;;;;;;;4.30;1.70;;;20.10;43.00;;;;;;5039169;28;20033;-51
2022/09/29 07:14:24;;;;;;;2.05;1.60;;;20.10;42.90;;;;;;5034440;28;20037;-50
2022/09/29 07:16:51;;;;;;;5.15;1.80;;;20.20;43.00;;;;;;5046190;28;20057;-54
2022/09/29 07:19:18;;;;;;;2.42;1.77;;;20.20;43.00;;;;;;5045996;28;20029;-51
2022/09/29 07:21:45;;;;;;;3.22;1.98;;;20.20;43.00;;;;;;5032846;28;20068;-52
2022/09/29 07:24:11;;;;;;;1.77;1.48;;;20.20;43.00;;;;;;5036922;28;20421;-47
2022/09/29 07:26:37;;;;;;;2.67;1.92;;;20.20;43.00;;;;;;5052166;28;20043;-50
2022/09/29 07:29:03;;;;;;;3.08;2.03;;;20.20;43.00;;;;;;5053741;28;20028;-48
2022/09/29 07:31:29;;;;;;;2.88;1.75;;;20.20;43.00;;;;;;5045152;28;20033;-50
2022/09/29 07:33:55;;;;;;;2.65;1.90;;;20.20;43.00;;;;;;5053065;28;20029;-51
2022/09/29 07:36:22;;;;;;;3.15;2.00;;;20.20;43.00;;;;;;5044064;28;20033;-48
2022/09/29 07:38:49;;;;;;;3.35;2.13;;;20.20;43.00;;;;;;5031900;28;20024;-50
2022/09/29 07:41:18;;;;;;;3.15;2.33;;;20.20;43.00;;;;;;5032576;28;20025;-50
2022/09/29 07:43:43;;;;;;;2.70;2.10;;;20.20;43.00;;;;;;5032358;28;20033;-51
2022/09/29 07:46:10;;;;;;;3.13;2.00;;;20.20;43.00;;;;;;5033625;28;20040;-52
2022/09/29 07:48:37;;;;;;;2.35;1.98;;;20.20;43.00;;;;;;5032833;28;20034;-50
2022/09/29 07:51:10;;;;;;;2.65;2.05;;;20.20;43.00;;;;;;5033979;28;20025;-52
2022/09/29 07:53:36;;;;;;;2.58;1.92;;;20.20;43.00;;;;;;5036693;28;20432;-51
2022/09/29 07:56:06;;;;;;;2.83;2.45;;;20.20;43.00;;;;;;5037185;28;20037;-51
2022/09/29 07:58:32;;;;;;;3.88;2.60;;;20.20;43.00;;;;;;5042302;28;20025;-51
2022/09/29 08:01:00;;;;;;;4.40;3.55;;;20.20;43.00;;;;;;5051143;28;20473;-48
2022/09/29 08:03:26;;;;;;;6.78;4.20;;;20.20;43.00;;;;;;5055409;28;20395;-51
2022/09/29 08:05:56;;;;;;;6.07;4.30;;;20.20;43.10;;;;;;5057085;28;20100;-50
2022/09/29 08:08:23;;;;;;;7.75;5.10;;;20.20;43.10;;;;;;5036096;28;20310;-55
2022/09/29 08:10:49;;;;;;;10.77;6.28;;;20.20;43.10;;;;;;5039930;28;20036;-50
2022/09/29 08:13:15;;;;;;;9.82;6.25;;;20.20;43.10;;;;;;5031285;28;20025;-50
2022/09/29 08:15:40;;;;;;;10.70;6.03;;;20.20;43.10;;;;;;5035986;28;20026;-49
2022/09/29 08:18:06;;;;;;;12.10;6.70;;;20.20;43.10;;;;;;5036853;28;20025;-49
2022/09/29 08:20:34;;;;;;;8.90;6.25;;;20.20;43.20;;;;;;5048548;28;20021;-49
2022/09/29 08:23:00;;;;;;;10.02;6.55;;;20.20;43.90;;;;;;5043560;28;20030;-49
2022/09/29 08:25:26;;;;;;;9.93;5.82;;;20.20;43.30;;;;;;5052502;28;20111;-52
2022/09/29 08:27:52;;;;;;;9.00;5.80;;;20.30;43.40;;;;;;5050858;28;20021;-52
2022/09/29 08:30:18;;;;;;;11.15;6.32;;;20.20;43.30;;;;;;5047901;28;20724;-49
2022/09/29 08:32:50;;;;;;;8.73;5.55;;;20.30;43.40;;;;;;5054411;28;20093;-52
2022/09/29 08:35:16;;;;;;;9.07;5.28;;;20.20;43.40;;;;;;5051379;28;20028;-51
2022/09/29 08:37:42;;;;;;;7.93;5.60;;;20.30;43.50;;;;;;5040893;28;20029;-53
2022/09/29 08:40:08;;;;;;;8.38;5.32;;;20.30;43.50;;;;;;5054167;28;20025;-51
2022/09/29 08:42:59;;;;;;;7.38;4.80;;;20.30;43.60;;;;;;5054313;28;20322;-51
2022/09/29 08:45:36;;;;;;;9.00;5.50;;;20.30;43.60;;;;;;5049481;28;20094;-49
2022/09/29 08:48:18;;;;;;;7.07;5.00;;;20.30;43.60;;;;;;5049490;28;20448;-50
2022/09/29 08:50:56;;;;;;;7.30;5.45;;;20.30;43.60;;;;;;5045318;28;20079;-52
2022/09/29 08:53:23;;;;;;;8.18;5.38;;;20.30;43.70;;;;;;5036220;28;20125;-49
2022/09/29 08:55:54;;;;;;;10.85;6.32;;;20.30;43.70;;;;;;5036512;28;20033;-53
2022/09/29 08:58:20;;;;;;;8.43;5.97;;;20.30;43.70;;;;;;5047554;28;20116;-48
2022/09/29 09:01:09;;;;;;;8.40;6.32;;;20.30;43.80;;;;;;5052094;28;20025;-47
2022/09/29 09:03:38;;;;;;;8.88;6.32;;;20.30;43.80;;;;;;5041042;28;20033;-50
2022/09/29 09:06:27;;;;;;;9.25;6.35;;;20.30;43.80;;;;;;5029576;28;20112;-51
2022/09/29 09:09:17;;;;;;;7.47;5.85;;;20.30;43.90;;;;;;5034758;28;20364;-49
2022/09/29 09:12:04;;;;;;;8.45;6.13;;;20.30;44.00;;;;;;5044701;28;20456;-52
2022/09/29 09:14:53;;;;;;;8.32;6.22;;;20.30;44.30;;;;;;5042932;28;20134;-49
2022/09/29 09:18:02;;;;;;;7.80;6.40;;;20.30;44.50;;;;;;5037486;28;20033;-47
2022/09/29 09:21:14;;;;;;;7.63;6.75;;;20.30;44.70;;;;;;5042141;28;20071;-53
2022/09/29 09:23:53;;;;;;;9.13;7.55;;;20.30;45.00;;;;;;5023899;28;20086;-49
2022/09/29 09:26:37;;;;;;;9.57;7.80;;;20.30;45.10;;;;;;5039215;28;20033;-52
2022/09/29 09:29:27;;;;;;;9.55;7.80;;;20.40;45.30;;;;;;5037258;28;20136;-50
2022/09/29 09:31:59;;;;;;;8.52;7.45;;;20.40;45.90;;;;;;5038143;28;20024;-50
2022/09/29 09:34:52;;;;;;;7.38;6.47;;;20.40;45.20;;;;;;5039926;28;20580;-46
2022/09/29 09:37:40;;;;;;;7.85;5.40;;;20.40;45.10;;;;;;5034217;28;20460;-48
2022/09/29 09:40:15;;;;;;;6.20;5.60;;;20.40;45.10;;;;;;5041273;28;20052;-48
2022/09/29 09:42:45;;;;;;;7.40;6.25;;;20.40;45.00;;;;;;5033332;28;20036;-47
2022/09/29 09:45:41;;;;;;;6.20;5.50;;;20.40;45.10;;;;;;5038817;28;20481;-46
2022/09/29 09:48:13;;;;;;;6.63;5.60;;;20.40;45.10;;;;;;5035791;28;20102;-52
2022/09/29 09:50:42;;;;;;;6.78;4.93;;;20.40;45.10;;;;;;5037208;28;20110;-53
2022/09/29 09:53:19;;;;;;;6.45;5.05;;;20.40;45.10;;;;;;5036577;28;20026;-50
2022/09/29 09:56:00;;;;;;;5.57;4.53;;;20.50;45.30;;;;;;5032703;28;20515;-52
2022/09/29 09:58:58;;;;;;;5.95;4.68;;;20.50;45.30;;;;;;5035425;28;20034;-48
2022/09/29 10:01:25;;;;;;;5.20;4.15;;;20.50;45.40;;;;;;5037014;28;20048;-49
2022/09/29 10:03:51;;;;;;;5.90;4.82;;;20.50;45.50;;;;;;5038085;28;20049;-48
2022/09/29 10:06:17;;;;;;;5.07;4.38;;;20.50;45.50;;;;;;5037904;28;20033;-46
2022/09/29 10:08:43;;;;;;;5.93;4.60;;;20.50;45.60;;;;;;5028576;28;20075;-53
2022/09/29 10:11:18;;;;;;;4.47;4.07;;;20.50;45.60;;;;;;5030019;28;20057;-51
2022/09/29 10:13:45;;;;;;;6.25;4.55;;;20.50;45.50;;;;;;5038701;28;20031;-49
2022/09/29 10:16:27;;;;;;;6.43;3.90;;;20.50;45.50;;;;;;5025137;28;20042;-48
2022/09/29 10:18:53;;;;;;;3.90;3.45;;;20.60;45.50;;;;;;5018313;28;20120;-47
2022/09/29 10:21:40;;;;;;;4.68;3.42;;;20.50;45.40;;;;;;5025217;28;20117;-49
2022/09/29 10:24:21;;;;;;;3.65;3.00;;;20.60;45.40;;;;;;5027235;28;20448;-49
2022/09/29 10:26:50;;;;;;;4.72;3.03;;;20.50;45.30;;;;;;5031406;28;20107;-47
2022/09/29 10:29:43;;;;;;;3.63;2.70;;;20.50;45.30;;;;;;5024432;28;20453;-47
2022/09/29 10:32:21;;;;;;;5.20;2.93;;;20.50;45.50;;;;;;5025882;28;20108;-53
2022/09/29 10:34:53;;;;;;;4.32;2.75;;;20.60;45.80;;;;;;5020868;28;20330;-50
2022/09/29 10:37:25;;;;;;;5.65;3.47;;;20.60;45.90;;;;;;5024576;28;20038;-47
2022/09/29 10:40:07;;;;;;;3.58;3.13;;;20.70;46.10;;;;;;5015514;28;20021;-47
2022/09/29 10:42:39;;;;;;;3.80;3.40;;;20.60;46.00;;;;;;5022140;28;20022;-47
2022/09/29 10:45:19;;;;;;;3.05;2.70;;;20.70;45.90;;;;;;5021061;28;20045;-49
2022/09/29 10:47:48;;;;;;;4.45;3.08;;;20.70;45.80;;;;;;5017545;28;20449;-48
2022/09/29 10:50:22;;;;;;;3.97;2.50;;;20.70;45.70;;;;;;5023508;28;20029;-50
2022/09/29 10:52:53;;;;;;;2.78;2.40;;;20.60;45.50;;;;;;5031213;28;20026;-49
2022/09/29 10:55:25;;;;;;;2.95;2.50;;;20.70;45.50;;;;;;5016927;28;20034;-51
2022/09/29 10:58:00;;;;;;;5.10;2.20;;;20.60;45.30;;;;;;5054544;28;20029;-48
2022/09/29 11:00:37;;;;;;;4.22;2.60;;;20.70;45.30;;;;;;5034503;28;20048;-50
2022/09/29 11:03:14;;;;;;;2.15;1.95;;;20.60;45.20;;;;;;5029383;28;20037;-48
2022/09/29 11:06:00;;;;;;;2.10;1.80;;;20.70;45.20;;;;;;5017635;28;20476;-48
2022/09/29 11:08:26;;;;;;;2.60;2.10;;;20.70;45.20;;;;;;5018156;28;20109;-47
2022/09/29 11:11:24;;;;;;;2.90;2.20;;;20.70;45.10;;;;;;5024358;28;20120;-51
2022/09/29 11:13:51;;;;;;;2.38;1.80;;;20.60;45.00;;;;;;5031208;28;20026;-50
2022/09/29 11:16:28;;;;;;;2.45;1.85;;;20.70;45.10;;;;;;5027179;28;20021;-47
2022/09/29 11:19:02;;;;;;;1.92;1.67;;;20.70;45.00;;;;;;5034803;28;20053;-48
2022/09/29 11:21:47;;;;;;;;;;;20.70;45.00;;;;;;5026149;28;20044;-49
2022/09/29 11:24:32;;;;;;;2.78;1.75;;;20.70;44.90;;;;;;5032697;28;19956;-49
2022/09/29 11:27:27;;;;;;;2.67;2.05;;;20.70;45.20;;;;;;5034294;28;20080;-55
2022/09/29 11:30:02;;;;;;;4.07;2.08;;;20.70;45.80;;;;;;5034230;28;20037;-56
2022/09/29 11:32:40;;;;;;;3.20;2.40;;;20.80;46.10;;;;;;5026861;28;20025;-49
2022/09/29 11:35:32;;;;;;;4.20;2.00;;;20.80;46.50;;;;;;5036647;28;20021;-50
2022/09/29 11:38:15;;;;;;;2.28;1.98;;;20.80;46.50;;;;;;5037138;28;20371;-51
2022/09/29 11:41:01;;;;;;;3.40;2.13;;;20.90;46.70;;;;;;5037178;28;20116;-48
2022/09/29 11:43:46;;;;;;;2.97;2.22;;;20.90;46.70;;;;;;5037463;28;20088;-47
2022/09/29 11:46:44;;;;;;;3.28;1.98;;;20.90;46.70;;;;;;5036906;28;20037;-49
2022/09/29 11:49:36;;;;;;;2.53;1.80;;;21.00;46.70;;;;;;5033609;28;20025;-48
2022/09/29 11:52:16;;;;;;;1.77;1.60;;;21.00;46.70;;;;;;5035979;28;20049;-49
2022/09/29 11:54:48;;;;;;;5.07;2.00;;;21.10;46.60;;;;;;5040140;28;21260;-51
2022/09/29 11:57:36;;;;;;;2.72;1.80;;;21.10;46.30;;;;;;5034329;28;20021;-49
2022/09/29 12:00:11;;;;;;;2.05;1.40;;;21.10;46.00;;;;;;5037287;28;20140;-52
2022/09/29 12:03:07;;;;;;;2.72;1.80;;;21.10;45.60;;;;;;5017632;28;20366;-52
2022/09/29 12:06:07;;;;;;;2.20;1.58;;;21.20;45.20;;;;;;5027743;28;20069;-45
2022/09/29 12:08:41;;;;;;;1.88;1.30;;;21.20;45.00;;;;;;5017699;28;20108;-52
2022/09/29 12:11:30;;;;;;;1.48;1.17;;;21.20;44.80;;;;;;5027235;28;20103;-47
2022/09/29 12:14:13;;;;;;;1.38;1.15;;;21.20;44.70;;;;;;5037305;28;20034;-51
2022/09/29 12:16:47;;;;;;;1.58;1.25;;;21.20;45.10;;;;;;5035425;28;20445;-48
2022/09/29 12:19:22;;;;;;;1.90;1.10;;;21.10;44.30;;;;;;5035068;28;20026;-50
2022/09/29 12:21:51;;;;;;;2.45;1.00;;;21.20;44.20;;;;;;5037332;28;20033;-52
2022/09/29 12:24:41;;;;;;;2.60;1.20;;;21.10;44.00;;;;;;5036944;28;20046;-46
2022/09/29 12:27:31;;;;;;;2.40;1.10;;;21.10;43.90;;;;;;5037449;28;20037;-49
2022/09/29 12:30:21;;;;;;;1.20;1.10;;;21.10;43.80;;;;;;5037086;28;20069;-47
2022/09/29 12:33:22;;;;;;;1.73;1.00;;;21.20;43.70;;;;;;5037017;28;20076;-53
2022/09/29 12:35:54;;;;;;;1.55;1.10;;;21.10;43.50;;;;;;5008320;28;20046;-50
2022/09/29 12:38:41;;;;;;;1.17;0.90;;;21.10;43.50;;;;;;5016749;28;20038;-50
2022/09/29 12:41:07;;;;;;;1.20;0.90;;;21.10;43.40;;;;;;5028404;28;20044;-52
2022/09/29 12:43:52;;;;;;;1.23;0.70;;;21.10;43.90;;;;;;5036793;28;20025;-47
2022/09/29 12:46:36;;;;;;;2.03;0.88;;;21.10;43.20;;;;;;5036739;28;20108;-49
2022/09/29 12:49:57;;;;;;;2.47;0.88;;;21.10;43.10;;;;;;5016478;28;20045;-51
2022/09/29 12:52:30;;;;;;;0.75;0.70;;;21.10;43.00;;;;;;5005964;28;20116;-51
2022/09/29 12:55:02;;;;;;;0.90;0.60;;;21.10;42.90;;;;;;5030364;28;20116;-49
2022/09/29 12:57:37;;;;;;;1.35;0.80;;;21.10;42.80;;;;;;5036552;28;20041;-51
2022/09/29 13:00:11;;;;;;;1.38;0.80;;;21.10;42.70;;;;;;5036627;28;20057;-48
2022/09/29 13:02:43;;;;;;;;;;;21.10;42.60;;;;;;5036014;28;20025;-50
2022/09/29 13:05:18;;;;;;;0.88;0.70;;;21.10;42.60;;;;;;5036329;28;19913;-49
2022/09/29 13:07:52;;;;;;;1.63;0.80;;;21.10;42.50;;;;;;5030972;28;20030;-52
2022/09/29 13:10:37;;;;;;;1.27;0.82;;;21.10;42.50;;;;;;5030755;28;20124;-52
2022/09/29 13:13:18;;;;;;;1.00;0.60;;;21.10;42.50;;;;;;5041618;28;20036;-49
2022/09/29 13:16:01;;;;;;;0.82;0.82;;;21.10;42.50;;;;;;5052253;28;20439;-50
2022/09/29 13:18:48;;;;;;;2.00;0.90;;;21.10;42.40;;;;;;5042943;28;20028;-49
2022/09/29 13:21:30;;;;;;;1.13;0.80;;;21.10;42.40;;;;;;5036914;28;20033;-50